Time;durP1;ratioP1;P1;durP2;ratioP2;P2;SDS_P1;SDS_P2;PMS_P1;PMS_P2;Temp;Humidity;BMP_temperature;BMP_pressure;BME280_temperature;BME280_humidity;BME280_pressure;Samples;Min_cycle;Max_cycle;Signal;HPM_P1;HPM_P2
2022/03/11 00:00:39;;;;;;;5.47;4.97;;;15.80;37.20;17.00;101119.00;;;;5078323;28;20243;-47
2022/03/11 00:03:05;;;;;;;5.20;4.63;;;15.80;38.20;17.00;101115.00;;;;5079048;28;20780;-46
2022/03/11 00:05:31;;;;;;;5.20;4.70;;;15.80;38.60;17.00;101108.00;;;;5078336;28;20200;-46
2022/03/11 00:07:56;;;;;;;5.07;4.13;;;15.80;37.90;17.00;101124.00;;;;5078442;28;20167;-46
2022/03/11 00:10:22;;;;;;;5.63;5.13;;;15.80;38.30;16.90;101015.00;;;;5077800;28;20193;-47
2022/03/11 00:12:48;;;;;;;5.23;4.40;;;15.70;37.00;16.90;101112.00;;;;5077925;28;20177;-47
2022/03/11 00:15:14;;;;;;;5.23;4.80;;;15.70;38.30;16.80;101105.00;;;;5077796;28;20792;-47
2022/03/11 00:17:40;;;;;;;5.27;4.77;;;15.60;36.80;16.80;101105.00;;;;5082186;28;20209;-46
2022/03/11 00:20:07;;;;;;;5.07;4.67;;;15.60;37.40;16.80;101104.00;;;;5080515;28;20190;-46
2022/03/11 00:22:34;;;;;;;5.87;5.07;;;15.60;37.50;16.80;101096.00;;;;5060954;28;20726;-46
2022/03/11 00:25:00;;;;;;;4.70;4.30;;;15.50;36.70;16.80;101106.00;;;;5076123;28;20247;-46
2022/03/11 00:27:25;;;;;;;4.60;4.20;;;15.50;37.60;16.80;101051.00;;;;5079616;28;20497;-45
2022/03/11 00:29:51;;;;;;;4.67;4.27;;;15.40;37.30;16.80;101101.00;;;;5077448;28;20523;-46
2022/03/11 00:32:17;;;;;;;4.93;4.50;;;15.50;37.80;16.80;101105.00;;;;5077570;28;20291;-46
2022/03/11 00:34:42;;;;;;;4.70;4.30;;;15.50;36.90;16.80;101112.00;;;;5078692;28;20190;-47
2022/03/11 00:37:08;;;;;;;4.67;4.27;;;15.40;37.60;16.80;101113.00;;;;5077302;28;20403;-45
2022/03/11 00:39:34;;;;;;;4.60;4.20;;;15.50;37.70;16.80;101117.00;;;;5077340;28;20182;-46
2022/03/11 00:41:59;;;;;;;4.40;4.10;;;15.50;37.50;16.80;101113.00;;;;5078245;28;20180;-51
2022/03/11 00:44:25;;;;;;;4.87;4.40;;;15.40;37.80;16.70;101105.00;;;;5076458;28;20414;-47
2022/03/11 00:46:51;;;;;;;5.63;4.73;;;15.40;37.30;16.70;101107.00;;;;5077288;28;20169;-46
2022/03/11 00:49:16;;;;;;;4.90;4.47;;;15.40;37.10;16.70;101108.00;;;;5077229;28;20170;-46
2022/03/11 00:51:42;;;;;;;4.33;3.93;;;15.40;37.60;16.70;101103.00;;;;5076823;28;20165;-47
2022/03/11 00:54:08;;;;;;;4.60;4.20;;;15.40;37.60;16.70;101120.00;;;;5075335;28;20186;-47
2022/03/11 00:56:34;;;;;;;4.97;4.40;;;15.50;37.30;16.70;101105.00;;;;5076100;28;20180;-46
2022/03/11 00:58:59;;;;;;;4.73;4.33;;;15.40;36.90;16.70;101109.00;;;;5075106;28;20188;-46
2022/03/11 01:01:25;;;;;;;4.67;4.27;;;15.30;37.30;16.60;101105.00;;;;5075400;28;20206;-48
2022/03/11 01:03:51;;;;;;;5.03;4.60;;;15.30;37.30;16.60;101106.00;;;;5077166;28;20173;-46
2022/03/11 01:06:16;;;;;;;5.10;4.60;;;15.30;37.50;16.60;101101.00;;;;5079053;28;20193;-46
2022/03/11 01:08:42;;;;;;;4.30;3.90;;;15.30;36.90;16.60;101109.00;;;;5085014;28;20177;-46
2022/03/11 01:11:11;;;;;;;4.60;4.20;;;15.20;37.80;16.60;101103.00;;;;5078223;28;20178;-46
2022/03/11 01:13:38;;;;;;;4.50;4.10;;;15.20;37.40;16.60;101104.00;;;;5076367;28;20229;-46
2022/03/11 01:16:04;;;;;;;4.57;4.17;;;15.20;38.00;16.50;101095.00;;;;5076405;28;20214;-46
2022/03/11 01:18:29;;;;;;;4.47;4.07;;;15.20;37.10;16.50;101082.00;;;;5076650;28;20170;-46
2022/03/11 01:20:56;;;;;;;4.30;3.90;;;15.30;37.80;16.50;101087.00;;;;5076817;28;20201;-46
2022/03/11 01:23:21;;;;;;;4.70;4.30;;;15.20;37.60;16.50;101077.00;;;;5076325;28;20174;-46
2022/03/11 01:25:47;;;;;;;4.20;3.80;;;15.30;38.00;16.50;101075.00;;;;5076034;28;20634;-46
2022/03/11 01:28:13;;;;;;;4.60;4.20;;;15.30;38.40;16.50;101072.00;;;;5075641;28;20182;-47
2022/03/11 01:30:40;;;;;;;4.07;3.70;;;15.20;37.30;16.50;101072.00;;;;5076550;28;20230;-46
2022/03/11 01:33:06;;;;;;;4.53;4.13;;;15.30;38.70;16.50;101060.00;;;;5075955;28;20626;-47
2022/03/11 01:35:31;;;;;;;4.53;4.13;;;15.30;38.30;16.50;101077.00;;;;5074410;28;20193;-47
2022/03/11 01:37:57;;;;;;;4.20;3.80;;;15.20;37.60;16.50;101063.00;;;;5076149;28;20178;-46
2022/03/11 01:40:24;;;;;;;5.17;4.30;;;15.10;37.80;16.40;101075.00;;;;5076170;28;20220;-46
2022/03/11 01:42:49;;;;;;;4.73;4.30;;;15.10;37.70;16.40;101070.00;;;;5075616;28;20225;-46
2022/03/11 01:45:15;;;;;;;4.77;4.37;;;15.00;37.70;16.40;101064.00;;;;5075438;28;20205;-46
2022/03/11 01:47:41;;;;;;;4.60;4.20;;;15.00;37.50;16.30;101060.00;;;;5075960;28;20600;-47
2022/03/11 01:50:07;;;;;;;4.90;4.40;;;15.00;38.00;16.30;101055.00;;;;5075732;28;20185;-46
2022/03/11 01:52:33;;;;;;;4.70;4.30;;;15.00;37.40;16.30;101047.00;;;;5076612;28;20719;-46
2022/03/11 01:54:58;;;;;;;4.50;4.10;;;15.00;37.90;16.30;101055.00;;;;5057315;28;20198;-46
2022/03/11 01:57:24;;;;;;;4.70;4.30;;;15.00;37.60;16.30;101040.00;;;;5075232;28;20227;-47
2022/03/11 01:59:50;;;;;;;3.90;3.60;;;14.80;38.10;16.30;101051.00;;;;5074473;28;20190;-47
2022/03/11 02:02:16;;;;;;;4.57;4.17;;;14.90;38.60;16.30;101043.00;;;;5076039;28;20170;-47
2022/03/11 02:04:41;;;;;;;4.87;4.33;;;15.00;38.10;16.30;101052.00;;;;5075451;28;20219;-47
2022/03/11 02:07:08;;;;;;;4.37;3.97;;;14.90;38.10;16.20;101042.00;;;;5075045;28;20546;-47
2022/03/11 02:09:33;;;;;;;4.60;4.20;;;14.90;38.90;16.20;101038.00;;;;5073827;28;20189;-47
2022/03/11 02:11:59;;;;;;;5.30;4.80;;;14.90;38.60;16.20;101039.00;;;;5074127;28;20239;-46
2022/03/11 02:14:25;;;;;;;4.80;4.40;;;14.80;37.80;16.20;101033.00;;;;5076868;28;20204;-46
2022/03/11 02:16:50;;;;;;;4.50;4.10;;;14.80;38.00;16.20;101036.00;;;;5076364;28;20188;-45
2022/03/11 02:19:16;;;;;;;4.47;4.07;;;14.80;38.30;16.10;101034.00;;;;5077738;28;20177;-46
2022/03/11 02:21:44;;;;;;;4.70;4.20;;;14.80;38.20;16.10;101030.00;;;;5080111;28;20177;-48
2022/03/11 02:24:10;;;;;;;5.33;4.83;;;14.80;38.60;16.10;101039.00;;;;5079700;28;20196;-46
2022/03/11 02:26:36;;;;;;;4.60;4.20;;;14.80;37.60;16.10;101020.00;;;;5079324;28;20619;-46
2022/03/11 02:29:02;;;;;;;4.47;4.07;;;14.80;38.30;16.10;101020.00;;;;5078802;28;20343;-46
2022/03/11 02:31:29;;;;;;;4.63;4.23;;;14.70;38.50;16.10;101018.00;;;;5079241;28;20169;-46
2022/03/11 02:33:55;;;;;;;5.03;4.57;;;14.80;38.30;16.00;101035.00;;;;5079081;28;20170;-46
2022/03/11 02:36:21;;;;;;;4.93;4.13;;;14.60;38.20;16.00;101024.00;;;;5079523;28;20177;-45
2022/03/11 02:38:47;;;;;;;4.60;4.20;;;14.70;38.60;16.00;101019.00;;;;5083409;28;20196;-46
2022/03/11 02:41:13;;;;;;;5.30;4.80;;;14.80;38.70;16.00;101015.00;;;;5079841;28;20486;-46
2022/03/11 02:43:41;;;;;;;4.50;4.10;;;14.70;38.20;16.00;101026.00;;;;5078626;28;20198;-46
2022/03/11 02:46:07;;;;;;;5.27;4.80;;;14.80;38.00;16.00;101020.00;;;;5078534;28;20211;-46
2022/03/11 02:48:33;;;;;;;5.20;4.70;;;14.80;38.00;16.00;101017.00;;;;5078201;28;20505;-47
2022/03/11 02:50:59;;;;;;;5.00;4.50;;;14.70;38.00;16.00;101018.00;;;;5078490;28;20169;-46
2022/03/11 02:53:24;;;;;;;4.60;4.20;;;14.70;38.60;16.00;101010.00;;;;5078699;28;20165;-45
2022/03/11 02:55:50;;;;;;;5.70;5.17;;;14.60;38.70;15.90;101018.00;;;;5076421;28;20769;-46
2022/03/11 02:58:16;;;;;;;5.50;4.50;;;14.60;38.20;15.90;101019.00;;;;5077644;28;20189;-46
2022/03/11 03:00:41;;;;;;;5.70;5.20;;;14.60;38.30;15.90;101011.00;;;;5078564;28;20200;-46
2022/03/11 03:03:07;;;;;;;5.00;4.50;;;14.50;37.90;15.90;101018.00;;;;5079039;28;20173;-47
2022/03/11 03:05:33;;;;;;;4.90;4.50;;;14.50;38.70;15.90;101009.00;;;;5078980;28;20747;-47
2022/03/11 03:07:58;;;;;;;5.37;4.73;;;14.60;37.60;15.80;101013.00;;;;5078793;28;20207;-47
2022/03/11 03:10:24;;;;;;;4.80;4.40;;;14.50;38.60;15.80;100978.00;;;;5077653;28;20169;-46
2022/03/11 03:12:50;;;;;;;5.20;4.80;;;14.50;38.60;15.80;101010.00;;;;5077173;28;20173;-46
2022/03/11 03:15:16;;;;;;;4.43;4.03;;;14.50;38.50;15.80;100997.00;;;;5078000;28;20194;-45
2022/03/11 03:17:41;;;;;;;5.33;4.83;;;14.40;38.70;15.80;101000.00;;;;5078603;28;20189;-46
2022/03/11 03:20:08;;;;;;;4.60;4.20;;;14.40;38.60;15.80;101014.00;;;;5077090;28;20689;-46
2022/03/11 03:22:34;;;;;;;5.70;5.20;;;14.50;38.60;15.80;100995.00;;;;5078523;28;20618;-46
2022/03/11 03:25:00;;;;;;;5.57;5.07;;;14.50;37.60;15.70;101005.00;;;;5085619;28;20269;-47
2022/03/11 03:27:26;;;;;;;5.93;5.43;;;14.30;37.70;15.70;101011.00;;;;5078754;28;20185;-46
2022/03/11 03:29:51;;;;;;;4.70;4.30;;;14.40;37.50;15.70;101014.00;;;;5077889;28;20235;-46
2022/03/11 03:32:17;;;;;;;4.50;4.10;;;14.60;38.60;15.70;101007.00;;;;5078012;28;20185;-47
2022/03/11 03:34:43;;;;;;;5.70;4.43;;;14.80;38.40;15.80;101000.00;;;;5077497;28;20258;-47
2022/03/11 03:37:10;;;;;;;5.00;4.60;;;15.00;37.40;15.90;101004.00;;;;5077179;28;20169;-46
2022/03/11 03:39:37;;;;;;;4.83;4.40;;;15.10;37.60;15.90;101004.00;;;;5077329;28;20189;-46
2022/03/11 03:42:03;;;;;;;5.47;4.60;;;15.20;37.70;16.00;101006.00;;;;5075350;28;20162;-46
2022/03/11 03:44:28;;;;;;;5.73;5.13;;;15.20;38.00;16.00;100999.00;;;;5076383;28;20258;-46
2022/03/11 03:46:54;;;;;;;4.80;4.40;;;15.30;37.60;16.10;101017.00;;;;5077046;28;20166;-45
2022/03/11 03:49:20;;;;;;;5.37;4.87;;;15.30;37.70;16.10;100995.00;;;;5078296;28;20178;-46
2022/03/11 03:51:45;;;;;;;5.07;4.63;;;15.20;37.50;16.10;101007.00;;;;5076974;28;20264;-47
2022/03/11 03:54:11;;;;;;;5.27;4.77;;;15.30;37.50;16.10;100992.00;;;;5077644;28;20199;-47
2022/03/11 03:56:41;;;;;;;5.20;4.70;;;15.30;37.60;16.20;100995.00;;;;5076450;28;20178;-47
2022/03/11 03:59:08;;;;;;;5.47;4.97;;;15.30;38.10;16.20;100996.00;;;;5076014;28;20197;-47
2022/03/11 04:01:35;;;;;;;5.30;4.80;;;15.30;38.00;16.20;100996.00;;;;5078769;28;20842;-47
2022/03/11 04:04:02;;;;;;;5.20;4.70;;;15.30;38.10;16.20;100996.00;;;;5076741;28;20208;-47
2022/03/11 04:06:29;;;;;;;5.40;4.60;;;15.30;37.80;16.20;100989.00;;;;5077574;28;20181;-47
2022/03/11 04:08:56;;;;;;;5.27;4.77;;;15.30;38.10;16.20;100996.00;;;;5077187;28;20249;-47
2022/03/11 04:11:23;;;;;;;5.33;4.83;;;15.20;37.40;16.20;101002.00;;;;5075977;28;20201;-47
2022/03/11 04:13:50;;;;;;;5.70;5.07;;;15.10;37.90;16.20;101011.00;;;;5076714;28;20169;-47
2022/03/11 04:16:16;;;;;;;5.80;5.30;;;15.10;38.30;16.20;101005.00;;;;5077170;28;20189;-47
2022/03/11 04:18:42;;;;;;;5.80;5.20;;;15.10;37.30;16.20;101000.00;;;;5076251;28;20169;-47
2022/03/11 04:21:08;;;;;;;6.03;5.43;;;15.00;37.60;16.10;100996.00;;;;5076339;28;20257;-47
2022/03/11 04:23:33;;;;;;;5.87;5.27;;;14.80;37.90;16.10;101002.00;;;;5076647;28;20181;-46
2022/03/11 04:25:59;;;;;;;4.93;4.53;;;15.00;38.60;16.10;101002.00;;;;5077113;28;20189;-47
2022/03/11 04:28:25;;;;;;;12.37;5.00;;;15.00;38.40;16.10;101004.00;;;;5077209;28;20251;-48
2022/03/11 04:30:51;;;;;;;5.97;5.37;;;15.00;38.40;16.10;101012.00;;;;5078195;28;20174;-46
2022/03/11 04:33:16;;;;;;;7.03;6.30;;;15.10;38.20;16.10;100998.00;;;;5077716;28;20181;-47
2022/03/11 04:35:42;;;;;;;5.87;5.17;;;14.80;37.20;16.00;101001.00;;;;5079665;28;20678;-46
2022/03/11 04:38:09;;;;;;;8.83;7.10;;;14.60;38.00;15.90;101007.00;;;;5079464;28;20201;-46
2022/03/11 04:40:34;;;;;;;8.43;7.40;;;14.10;37.00;15.80;101000.00;;;;5078811;28;20258;-47
2022/03/11 04:43:01;;;;;;;8.53;7.13;;;13.70;36.00;15.60;101013.00;;;;5076542;28;20563;-46
2022/03/11 04:45:28;;;;;;;8.33;7.53;;;13.40;37.20;15.40;101003.00;;;;5079032;28;20223;-46
2022/03/11 04:47:53;;;;;;;8.47;7.67;;;13.20;37.40;15.30;101007.00;;;;5078823;28;20177;-47
2022/03/11 04:50:19;;;;;;;8.40;7.17;;;13.20;36.80;15.20;101009.00;;;;5076795;28;20176;-46
2022/03/11 04:52:45;;;;;;;10.10;8.00;;;13.60;38.30;15.20;101017.00;;;;5076301;28;20166;-46
2022/03/11 04:55:11;;;;;;;8.80;7.77;;;13.50;36.60;15.20;101012.00;;;;5075606;28;20197;-46
2022/03/11 04:57:37;;;;;;;8.67;7.37;;;13.80;37.30;15.20;101012.00;;;;5076386;28;20165;-47
2022/03/11 05:00:03;;;;;;;8.47;7.57;;;13.90;37.20;15.20;101005.00;;;;5077140;28;20189;-46
2022/03/11 05:02:31;;;;;;;8.43;7.60;;;14.00;36.80;15.30;101001.00;;;;5075952;28;20706;-46
2022/03/11 05:05:02;;;;;;;8.80;7.90;;;14.30;36.70;15.30;101002.00;;;;5076248;28;20269;-48
2022/03/11 05:07:29;;;;;;;8.33;7.43;;;14.30;37.10;15.40;101001.00;;;;5076533;28;20168;-46
2022/03/11 05:09:54;;;;;;;7.97;6.60;;;14.40;37.40;15.40;100994.00;;;;5077174;28;20669;-46
2022/03/11 05:12:20;;;;;;;7.80;7.10;;;14.50;37.30;15.50;100993.00;;;;5078158;28;20170;-46
2022/03/11 05:14:48;;;;;;;9.33;6.97;;;14.60;36.90;15.50;100993.00;;;;5076937;28;20202;-47
2022/03/11 05:17:16;;;;;;;7.40;6.70;;;14.50;36.70;15.50;100992.00;;;;5076211;28;20180;-46
2022/03/11 05:19:43;;;;;;;9.97;7.90;;;14.50;37.30;15.50;100998.00;;;;5076845;28;20193;-46
2022/03/11 05:22:08;;;;;;;7.37;6.67;;;14.40;36.70;15.50;101001.00;;;;5074652;28;20173;-46
2022/03/11 05:24:35;;;;;;;9.23;7.30;;;14.30;37.70;15.50;101009.00;;;;5076307;28;20189;-47
2022/03/11 05:27:02;;;;;;;9.33;8.37;;;14.10;37.10;15.50;100993.00;;;;5076153;28;20540;-46
2022/03/11 05:29:29;;;;;;;7.23;6.57;;;14.20;37.00;15.50;100999.00;;;;5077047;28;20170;-47
2022/03/11 05:31:54;;;;;;;8.27;7.47;;;14.10;38.00;15.40;101000.00;;;;5080087;28;20170;-46
2022/03/11 05:34:20;;;;;;;8.60;7.00;;;14.20;37.50;15.40;100885.00;;;;5076608;28;20193;-46
2022/03/11 05:36:46;;;;;;;7.93;7.13;;;14.30;37.90;15.50;101001.00;;;;5076166;28;20174;-46
2022/03/11 05:39:11;;;;;;;7.37;6.13;;;14.30;38.00;15.50;100990.00;;;;5077423;28;20637;-46
2022/03/11 05:41:37;;;;;;;8.07;7.27;;;14.30;37.70;15.40;101005.00;;;;5076474;28;20214;-45
2022/03/11 05:44:03;;;;;;;8.00;7.13;;;14.10;37.60;15.40;100993.00;;;;5071448;28;20213;-46
2022/03/11 05:46:29;;;;;;;7.60;6.63;;;14.20;37.50;15.40;100987.00;;;;5064245;28;20208;-46
2022/03/11 05:48:54;;;;;;;7.70;6.93;;;14.10;38.10;15.40;100985.00;;;;5074281;28;20169;-46
2022/03/11 05:51:20;;;;;;;8.27;7.47;;;14.00;38.00;15.40;100985.00;;;;5075281;28;20174;-46
2022/03/11 05:53:46;;;;;;;8.50;7.57;;;14.00;37.60;15.40;100985.00;;;;5077602;28;20177;-46
2022/03/11 05:56:11;;;;;;;7.90;7.13;;;14.00;38.00;15.30;100994.00;;;;5079668;28;20497;-45
2022/03/11 05:58:37;;;;;;;7.90;7.07;;;14.10;37.70;15.40;100991.00;;;;5078274;28;20197;-47
2022/03/11 06:01:03;;;;;;;9.30;8.40;;;14.10;38.30;15.30;100980.00;;;;5079986;28;20197;-46
2022/03/11 06:03:29;;;;;;;8.00;7.23;;;13.90;36.90;15.30;100992.00;;;;5078569;28;20193;-46
2022/03/11 06:05:55;;;;;;;8.70;7.90;;;13.90;37.90;15.30;100969.00;;;;5079385;28;20193;-46
2022/03/11 06:08:21;;;;;;;8.63;7.83;;;13.90;37.50;15.30;100983.00;;;;5081003;28;20662;-47
2022/03/11 06:10:47;;;;;;;8.33;7.13;;;13.80;37.70;15.20;100984.00;;;;5078447;28;20181;-46
2022/03/11 06:13:14;;;;;;;8.10;7.30;;;13.80;38.50;15.20;100969.00;;;;5079294;28;20166;-46
2022/03/11 06:15:43;;;;;;;7.83;7.13;;;13.90;38.10;15.20;100985.00;;;;5060979;28;20194;-46
2022/03/11 06:18:09;;;;;;;7.90;7.10;;;13.90;37.60;15.20;100985.00;;;;5078977;28;20735;-46
2022/03/11 06:20:36;;;;;;;7.87;7.07;;;13.90;37.80;15.20;100979.00;;;;5079286;28;20228;-47
2022/03/11 06:23:02;;;;;;;9.37;8.00;;;14.00;38.50;15.20;100981.00;;;;5077615;28;20651;-47
2022/03/11 06:25:28;;;;;;;7.80;7.10;;;13.90;37.90;15.20;100975.00;;;;5079049;28;20235;-46
2022/03/11 06:27:53;;;;;;;9.57;7.50;;;13.90;38.10;15.20;100978.00;;;;5078483;28;20197;-46
2022/03/11 06:30:19;;;;;;;7.70;6.90;;;14.00;38.40;15.20;100970.00;;;;5082400;28;20184;-46
2022/03/11 06:32:46;;;;;;;8.50;7.70;;;13.80;38.20;15.20;100981.00;;;;5078947;28;20193;-46
2022/03/11 06:35:13;;;;;;;7.87;7.17;;;13.90;37.90;15.20;100971.00;;;;5079460;28;20186;-46
2022/03/11 06:37:40;;;;;;;7.57;6.87;;;13.90;38.00;15.20;100968.00;;;;5078871;28;20192;-45
2022/03/11 06:40:08;;;;;;;7.30;6.60;;;13.90;38.40;15.20;100972.00;;;;5079887;28;20437;-46
2022/03/11 06:42:44;;;;;;;8.43;7.63;;;13.90;38.40;15.20;100974.00;;;;5061664;28;20626;-46
2022/03/11 06:45:11;;;;;;;9.33;8.03;;;13.90;38.00;15.20;100970.00;;;;5077477;28;20338;-46
2022/03/11 06:47:37;;;;;;;8.93;8.03;;;13.90;38.00;15.10;100956.00;;;;5076615;28;20170;-46
2022/03/11 06:50:03;;;;;;;8.97;8.13;;;13.90;37.40;15.10;100972.00;;;;5077168;28;20611;-46
2022/03/11 06:52:28;;;;;;;7.77;7.07;;;13.90;37.90;15.10;100982.00;;;;5077573;28;20232;-46
2022/03/11 06:54:54;;;;;;;8.60;7.80;;;13.70;37.50;15.10;100947.00;;;;5078939;28;20257;-45
2022/03/11 06:57:20;;;;;;;8.40;7.60;;;13.80;37.90;15.10;100922.00;;;;5079014;28;20192;-45
2022/03/11 06:59:47;;;;;;;8.90;8.10;;;13.70;38.20;15.10;100978.00;;;;5078685;28;20210;-48
2022/03/11 07:02:13;;;;;;;7.33;6.73;;;13.80;37.30;15.00;100974.00;;;;5077688;28;20185;-47
2022/03/11 07:04:39;;;;;;;8.47;7.67;;;13.70;38.40;15.00;100971.00;;;;5077695;28;20684;-46
2022/03/11 07:07:04;;;;;;;7.60;6.90;;;13.70;38.00;15.00;100971.00;;;;5078160;28;20158;-46
2022/03/11 07:09:30;;;;;;;8.27;7.47;;;13.60;38.00;15.00;100975.00;;;;5081682;28;20200;-46
2022/03/11 07:11:57;;;;;;;8.97;8.07;;;13.60;38.00;15.00;100975.00;;;;5077737;28;20200;-46
2022/03/11 07:14:24;;;;;;;10.83;9.73;;;13.60;37.70;14.90;100980.00;;;;5077902;28;20280;-46
2022/03/11 07:16:52;;;;;;;8.97;8.07;;;13.50;36.90;14.90;100983.00;;;;5076323;28;20599;-46
2022/03/11 07:19:21;;;;;;;8.37;7.57;;;13.40;37.70;14.90;100988.00;;;;5077061;28;20814;-46
2022/03/11 07:21:47;;;;;;;9.20;8.40;;;13.50;38.20;14.80;100992.00;;;;5077615;28;20570;-46
2022/03/11 07:24:13;;;;;;;12.87;9.30;;;13.50;37.80;14.80;100912.00;;;;5077167;28;20193;-46
2022/03/11 07:26:38;;;;;;;9.60;8.17;;;13.30;36.60;14.80;101008.00;;;;5077899;28;20188;-46
2022/03/11 07:29:04;;;;;;;11.50;10.00;;;13.20;37.80;14.70;101008.00;;;;5077534;28;20180;-46
2022/03/11 07:31:30;;;;;;;9.13;8.23;;;13.20;37.00;14.70;101007.00;;;;5078629;28;20173;-46
2022/03/11 07:33:56;;;;;;;11.83;7.90;;;13.20;38.50;14.70;101001.00;;;;5077763;28;20226;-45
2022/03/11 07:36:22;;;;;;;11.47;7.67;;;13.20;38.50;14.60;100996.00;;;;5076062;28;20181;-46
2022/03/11 07:38:48;;;;;;;9.90;8.27;;;13.20;38.60;14.60;100999.00;;;;5076109;28;20185;-45
2022/03/11 07:41:17;;;;;;;11.07;8.40;;;13.40;38.20;14.70;100995.00;;;;5075893;28;20203;-47
2022/03/11 07:43:44;;;;;;;10.43;8.50;;;13.40;38.30;14.70;100995.00;;;;5076377;28;20184;-46
2022/03/11 07:46:16;;;;;;;9.50;8.50;;;13.40;37.80;14.70;100929.00;;;;5077292;28;20596;-46
2022/03/11 07:48:41;;;;;;;11.63;8.33;;;13.40;37.80;14.70;101007.00;;;;5077100;28;20204;-46
2022/03/11 07:51:07;;;;;;;10.00;9.10;;;13.50;38.20;14.70;101002.00;;;;5076982;28;20173;-46
2022/03/11 07:53:34;;;;;;;9.27;8.37;;;13.50;37.80;14.70;100995.00;;;;5076652;28;20165;-46
2022/03/11 07:55:59;;;;;;;9.57;8.67;;;13.40;37.80;14.70;101012.00;;;;5075930;28;20631;-46
2022/03/11 07:58:25;;;;;;;9.30;8.27;;;13.40;37.10;14.70;100997.00;;;;5076410;28;20181;-46
2022/03/11 08:00:52;;;;;;;9.33;8.40;;;13.30;37.40;14.60;100927.00;;;;5076989;28;20201;-46
2022/03/11 08:03:18;;;;;;;9.23;7.97;;;13.40;38.50;14.60;100991.00;;;;5076151;28;20162;-46
2022/03/11 08:05:44;;;;;;;8.97;8.13;;;13.30;38.10;14.60;100989.00;;;;5076363;28;20199;-46
2022/03/11 08:08:09;;;;;;;11.70;8.77;;;13.40;38.20;14.70;100986.00;;;;5076532;28;20170;-46
2022/03/11 08:10:37;;;;;;;9.10;8.30;;;13.50;38.50;14.60;100983.00;;;;5077483;28;20174;-47
2022/03/11 08:13:03;;;;;;;10.23;9.23;;;13.60;38.50;14.70;100989.00;;;;5075674;28;20174;-46
2022/03/11 08:15:29;;;;;;;8.80;8.00;;;13.40;37.70;14.60;100989.00;;;;5076612;28;20189;-46
2022/03/11 08:17:55;;;;;;;8.60;7.80;;;13.20;38.10;14.60;100983.00;;;;5075593;28;20177;-46
2022/03/11 08:20:20;;;;;;;9.23;8.40;;;13.30;38.90;14.60;100982.00;;;;5077544;28;20185;-46
2022/03/11 08:22:48;;;;;;;9.43;8.43;;;13.30;37.60;14.50;100973.00;;;;5071605;28;20178;-46
2022/03/11 08:25:15;;;;;;;11.57;10.47;;;13.10;38.70;14.50;100960.00;;;;5055947;28;20412;-47
2022/03/11 08:27:40;;;;;;;14.23;12.77;;;12.80;37.50;14.30;100972.00;;;;5061270;28;20213;-47
2022/03/11 08:30:07;;;;;;;13.60;12.20;;;12.30;36.10;14.10;100960.00;;;;5064031;28;20304;-45
2022/03/11 08:32:33;;;;;;;14.63;13.27;;;11.90;37.70;14.00;100963.00;;;;5071779;28;20268;-46
2022/03/11 08:34:59;;;;;;;13.97;12.67;;;11.90;36.90;13.90;100912.00;;;;5073014;28;20217;-45
2022/03/11 08:37:25;;;;;;;13.43;12.13;;;11.70;37.40;13.80;100953.00;;;;5075621;28;20180;-46
2022/03/11 08:39:51;;;;;;;13.97;12.57;;;11.90;37.70;13.70;100958.00;;;;5058632;28;20198;-45
2022/03/11 08:42:17;;;;;;;12.10;10.90;;;12.10;38.10;13.70;100960.00;;;;5057049;28;20170;-46
2022/03/11 08:44:43;;;;;;;12.80;11.60;;;12.10;38.20;13.70;100941.00;;;;5070076;28;20663;-46
2022/03/11 08:47:09;;;;;;;12.37;11.07;;;12.50;38.30;13.80;100943.00;;;;5055340;28;20579;-47
2022/03/11 08:49:35;;;;;;;11.13;10.10;;;12.80;38.60;13.90;100952.00;;;;5070065;28;20172;-46
2022/03/11 08:52:01;;;;;;;12.17;10.17;;;13.10;38.30;14.00;100938.00;;;;5079025;28;20186;-46
2022/03/11 08:54:26;;;;;;;11.57;9.87;;;13.30;38.40;14.10;100943.00;;;;5078992;28;20719;-47
2022/03/11 08:56:53;;;;;;;10.10;9.13;;;13.40;41.10;14.10;100929.00;;;;5058690;28;20177;-46
2022/03/11 08:59:19;;;;;;;10.70;9.70;;;13.50;42.20;14.20;100945.00;;;;5057240;28;20178;-46
2022/03/11 09:01:45;;;;;;;10.20;9.13;;;13.60;42.10;14.20;100924.00;;;;5057407;28;20282;-47
2022/03/11 09:04:10;;;;;;;10.03;8.93;;;13.70;42.20;14.30;100934.00;;;;5057617;28;20205;-45
2022/03/11 09:06:36;;;;;;;10.73;8.90;;;13.70;41.90;14.30;100911.00;;;;5055551;28;20185;-46
2022/03/11 09:09:02;;;;;;;10.13;9.00;;;13.70;42.00;14.40;100929.00;;;;5057154;28;20537;-47
2022/03/11 09:11:27;;;;;;;12.77;8.53;;;13.70;41.90;14.40;100926.00;;;;5054847;28;20189;-46
2022/03/11 09:13:53;;;;;;;11.67;8.20;;;13.70;42.10;14.50;100927.00;;;;5055102;28;20422;-46
2022/03/11 09:16:19;;;;;;;10.17;7.70;;;13.80;42.40;14.50;100927.00;;;;5055619;28;20190;-47
2022/03/11 09:18:45;;;;;;;8.73;7.83;;;13.80;42.50;14.50;100931.00;;;;5056342;28;20185;-48
2022/03/11 09:21:12;;;;;;;9.30;8.27;;;13.80;42.60;14.50;100866.00;;;;5056603;28;20209;-47
2022/03/11 09:23:39;;;;;;;13.17;7.77;;;13.80;42.30;14.60;100918.00;;;;5075829;28;20170;-47
2022/03/11 09:26:05;;;;;;;9.83;7.97;;;13.80;42.50;14.60;100924.00;;;;5075891;28;20795;-47
2022/03/11 09:28:31;;;;;;;10.90;7.67;;;13.90;43.00;14.60;100919.00;;;;5077827;28;20162;-47
2022/03/11 09:30:57;;;;;;;7.93;7.13;;;13.90;43.60;14.60;100920.00;;;;5079479;28;20192;-47
2022/03/11 09:33:24;;;;;;;9.17;7.77;;;13.90;43.10;14.70;100914.00;;;;5077889;28;20165;-47
2022/03/11 09:35:49;;;;;;;8.10;7.30;;;13.90;42.90;14.60;100915.00;;;;5079524;28;20201;-48
2022/03/11 09:38:15;;;;;;;8.83;7.20;;;13.90;42.60;14.70;100912.00;;;;5080048;28;20199;-47
2022/03/11 09:40:43;;;;;;;8.30;7.50;;;13.90;42.30;14.70;100913.00;;;;5079863;28;20206;-48
2022/03/11 09:43:10;;;;;;;7.93;7.07;;;13.90;42.00;14.70;100834.00;;;;5079830;28;20189;-46
2022/03/11 09:45:37;;;;;;;8.13;7.37;;;13.90;41.90;14.70;100906.00;;;;5080729;28;20196;-47
2022/03/11 09:48:02;;;;;;;8.80;6.93;;;13.90;41.80;14.70;100911.00;;;;5080097;28;20197;-47
2022/03/11 09:50:29;;;;;;;8.10;7.37;;;13.90;41.70;14.70;100896.00;;;;5078017;28;20795;-47
2022/03/11 09:52:55;;;;;;;7.77;7.03;;;13.90;41.70;14.70;100905.00;;;;5078904;28;20182;-47
2022/03/11 09:55:20;;;;;;;9.50;6.90;;;13.90;41.60;14.70;100884.00;;;;5078878;28;20198;-47
2022/03/11 09:57:46;;;;;;;7.87;7.10;;;13.90;41.50;14.70;100911.00;;;;5062034;28;20270;-47
2022/03/11 10:00:12;;;;;;;7.97;7.17;;;13.90;41.40;14.70;100901.00;;;;5079508;28;20197;-47
2022/03/11 10:02:44;;;;;;;8.23;7.43;;;13.90;41.40;14.70;100910.00;;;;5079043;28;20177;-47
2022/03/11 10:05:10;;;;;;;8.50;7.60;;;13.90;41.40;14.80;100917.00;;;;5080909;28;20224;-46
2022/03/11 10:07:36;;;;;;;8.57;7.53;;;14.00;41.50;14.80;100917.00;;;;5082332;28;20173;-46
2022/03/11 10:10:13;;;;;;;8.80;7.23;;;13.90;41.40;14.80;100896.00;;;;5079677;28;20182;-46
2022/03/11 10:12:44;;;;;;;9.97;7.00;;;14.00;41.90;14.80;100897.00;;;;5080422;28;20256;-47
2022/03/11 10:15:11;;;;;;;9.17;7.70;;;14.10;42.00;14.80;100900.00;;;;5072466;28;20285;-46
2022/03/11 10:17:41;;;;;;;10.77;7.50;;;14.20;41.90;14.90;100905.00;;;;5069895;28;20877;-46
2022/03/11 10:20:12;;;;;;;9.77;7.80;;;14.90;42.50;15.00;100896.00;;;;5058408;28;20248;-46
2022/03/11 10:22:39;;;;;;;8.70;7.70;;;14.50;42.20;15.10;100908.00;;;;5059017;28;20163;-45
2022/03/11 10:25:09;;;;;;;7.67;6.90;;;14.60;42.30;15.20;100905.00;;;;5063036;28;20343;-45
2022/03/11 10:28:11;;;;;;;9.47;7.23;;;14.80;41.90;15.30;100893.00;;;;5079245;28;20216;-50
2022/03/11 10:30:38;;;;;;;9.07;7.03;;;15.00;41.70;15.40;100882.00;;;;5067590;28;20182;-47
2022/03/11 10:33:11;;;;;;;7.73;6.73;;;15.10;41.60;15.50;100898.00;;;;5054895;28;20177;-47
2022/03/11 10:35:43;;;;;;;8.57;6.70;;;15.30;41.60;15.60;100890.00;;;;5075772;28;20752;-46
2022/03/11 10:38:11;;;;;;;7.67;6.73;;;15.30;41.50;15.70;100880.00;;;;5078402;28;20193;-46
2022/03/11 10:41:06;;;;;;;6.90;6.17;;;15.40;41.50;15.80;100878.00;;;;5076802;28;20189;-46